LIEO/OLB METAR and TAF weather

Enter ICAO airport designator
Station Type Date Time Source
LIEO METAR 2021/07/26 13:50 UTC NOAA

LIEO 261350Z 10012KT CAVOK 36/17 Q1011


Station Type Date Time Source
LIEO Decoded METAR 2021/07/26 13:50 UTC NOAA

Olbia / Costa Smeralda, Italy (LIEO) 40-54N 009-31E 13M
Jul 26, 2021 - 09:50 AM EDT / 2021.07.26 1350 UTC
Wind: from the E (100 degrees) at 14 MPH (12 KT):0
Visibility: greater than 7 mile(s):0
Temperature: 96 F (36 C)
Heat index: 96.8 F (36.0 C):1
Dew Point: 62 F (17 C)
Relative Humidity: 32%
Pressure (altimeter): 29.85 in. Hg (1011 hPa)
ob: LIEO 261350Z 10012KT CAVOK 36/17 Q1011
cycle: 14

Station Type Date Time Source
LIEO TAF 2021/07/26 12:21 UTC NOAA

TAF LIEO 261100Z 2612/2712 08012KT 9999 SCT040
TEMPO 2612/2616 4000 TSRA
BECMG 2619/2621 VRB05KT
BECMG 2708/2710 07012KT

Example: see airport list